sensor_id;sensor_type;location;lat;lon;timestamp;temperature;humidity
16814;DHT22;8524;57.650;11.926;2023-03-21T00:01:55;5.10;99.90
16814;DHT22;8524;57.650;11.926;2023-03-21T00:04:25;5.10;99.90
16814;DHT22;8524;57.650;11.926;2023-03-21T00:06:53;5.10;99.90
16814;DHT22;8524;57.650;11.926;2023-03-21T00:09:20;5.10;99.90
16814;DHT22;8524;57.650;11.926;2023-03-21T00:11:50;5.10;99.90
16814;DHT22;8524;57.650;11.926;2023-03-21T00:14:17;5.10;99.90
16814;DHT22;8524;57.650;11.926;2023-03-21T00:16:44;5.20;99.90
16814;DHT22;8524;57.650;11.926;2023-03-21T00:19:15;5.20;99.90
16814;DHT22;8524;57.650;11.926;2023-03-21T00:21:43;5.10;99.90
16814;DHT22;8524;57.650;11.926;2023-03-21T00:24:11;5.10;99.90
16814;DHT22;8524;57.650;11.926;2023-03-21T00:26:38;5.10;99.90
16814;DHT22;8524;57.650;11.926;2023-03-21T00:29:05;5.10;99.90
16814;DHT22;8524;57.650;11.926;2023-03-21T00:31:32;5.10;99.90
16814;DHT22;8524;57.650;11.926;2023-03-21T00:33:59;5.10;99.90
16814;DHT22;8524;57.650;11.926;2023-03-21T00:36:27;5.10;99.90
16814;DHT22;8524;57.650;11.926;2023-03-21T00:38:55;5.10;99.90
16814;DHT22;8524;57.650;11.926;2023-03-21T00:41:23;5.10;99.90
16814;DHT22;8524;57.650;11.926;2023-03-21T00:43:50;5.10;99.90
16814;DHT22;8524;57.650;11.926;2023-03-21T00:46:20;5.10;99.90
16814;DHT22;8524;57.650;11.926;2023-03-21T00:48:46;5.10;99.90
16814;DHT22;8524;57.650;11.926;2023-03-21T00:51:18;5.10;99.90
16814;DHT22;8524;57.650;11.926;2023-03-21T00:53:51;5.10;99.90
16814;DHT22;8524;57.650;11.926;2023-03-21T00:56:19;5.10;99.90
16814;DHT22;8524;57.650;11.926;2023-03-21T00:58:46;5.10;99.90
16814;DHT22;8524;57.650;11.926;2023-03-21T01:01:13;5.10;99.90
16814;DHT22;8524;57.650;11.926;2023-03-21T01:03:40;5.10;99.90
16814;DHT22;8524;57.650;11.926;2023-03-21T01:06:16;5.10;99.90
16814;DHT22;8524;57.650;11.926;2023-03-21T01:08:46;5.00;99.90
16814;DHT22;8524;57.650;11.926;2023-03-21T01:11:16;4.90;99.90
16814;DHT22;8524;57.650;11.926;2023-03-21T01:13:45;4.80;99.90
16814;DHT22;8524;57.650;11.926;2023-03-21T01:16:12;4.80;99.90
16814;DHT22;8524;57.650;11.926;2023-03-21T01:18:40;4.80;99.90
16814;DHT22;8524;57.650;11.926;2023-03-21T01:21:10;4.80;99.90
16814;DHT22;8524;57.650;11.926;2023-03-21T01:23:38;4.70;99.90
16814;DHT22;8524;57.650;11.926;2023-03-21T01:26:06;4.70;99.90
16814;DHT22;8524;57.650;11.926;2023-03-21T01:28:34;4.70;99.90
16814;DHT22;8524;57.650;11.926;2023-03-21T01:31:04;4.70;99.90
16814;DHT22;8524;57.650;11.926;2023-03-21T01:33:32;4.80;99.90
16814;DHT22;8524;57.650;11.926;2023-03-21T01:35:59;4.80;99.90
16814;DHT22;8524;57.650;11.926;2023-03-21T01:38:27;4.90;99.90
16814;DHT22;8524;57.650;11.926;2023-03-21T01:40:54;4.90;99.90
16814;DHT22;8524;57.650;11.926;2023-03-21T01:43:23;4.90;99.90
16814;DHT22;8524;57.650;11.926;2023-03-21T01:46:26;4.80;99.90
16814;DHT22;8524;57.650;11.926;2023-03-21T01:48:57;4.80;99.90
16814;DHT22;8524;57.650;11.926;2023-03-21T01:51:26;4.80;99.90
16814;DHT22;8524;57.650;11.926;2023-03-21T01:53:54;4.70;99.90
16814;DHT22;8524;57.650;11.926;2023-03-21T01:56:24;4.70;99.90
16814;DHT22;8524;57.650;11.926;2023-03-21T01:58:55;4.70;99.90
16814;DHT22;8524;57.650;11.926;2023-03-21T02:01:26;4.70;99.90
16814;DHT22;8524;57.650;11.926;2023-03-21T02:03:53;4.80;99.90
16814;DHT22;8524;57.650;11.926;2023-03-21T02:06:27;4.80;99.90
16814;DHT22;8524;57.650;11.926;2023-03-21T02:09:02;4.90;99.90
16814;DHT22;8524;57.650;11.926;2023-03-21T02:11:34;4.90;99.90
16814;DHT22;8524;57.650;11.926;2023-03-21T02:14:01;4.90;99.90
16814;DHT22;8524;57.650;11.926;2023-03-21T02:16:40;4.90;99.90
16814;DHT22;8524;57.650;11.926;2023-03-21T02:22:42;4.90;99.90
16814;DHT22;8524;57.650;11.926;2023-03-21T02:28:18;4.90;99.90
16814;DHT22;8524;57.650;11.926;2023-03-21T02:34:01;4.90;99.90
16814;DHT22;8524;57.650;11.926;2023-03-21T02:36:49;5.00;99.90
16814;DHT22;8524;57.650;11.926;2023-03-21T02:39:21;4.90;99.90
16814;DHT22;8524;57.650;11.926;2023-03-21T02:41:54;4.90;99.90
16814;DHT22;8524;57.650;11.926;2023-03-21T02:44:27;4.90;99.90
16814;DHT22;8524;57.650;11.926;2023-03-21T02:46:58;4.80;99.90
16814;DHT22;8524;57.650;11.926;2023-03-21T02:49:30;4.80;99.90
16814;DHT22;8524;57.650;11.926;2023-03-21T02:52:02;4.80;99.90
16814;DHT22;8524;57.650;11.926;2023-03-21T02:54:31;4.80;99.90
16814;DHT22;8524;57.650;11.926;2023-03-21T02:56:59;4.80;99.90
16814;DHT22;8524;57.650;11.926;2023-03-21T02:59:29;4.80;99.90
16814;DHT22;8524;57.650;11.926;2023-03-21T03:01:57;4.80;99.90
16814;DHT22;8524;57.650;11.926;2023-03-21T03:04:27;4.80;99.90
16814;DHT22;8524;57.650;11.926;2023-03-21T03:07:18;4.80;99.90
16814;DHT22;8524;57.650;11.926;2023-03-21T03:10:00;4.80;99.90
16814;DHT22;8524;57.650;11.926;2023-03-21T03:12:36;4.80;99.90
16814;DHT22;8524;57.650;11.926;2023-03-21T03:15:13;4.90;99.90
16814;DHT22;8524;57.650;11.926;2023-03-21T03:17:49;4.90;99.90
16814;DHT22;8524;57.650;11.926;2023-03-21T03:20:23;4.90;99.90
16814;DHT22;8524;57.650;11.926;2023-03-21T03:23:01;4.80;99.90
16814;DHT22;8524;57.650;11.926;2023-03-21T03:25:35;4.80;99.90
16814;DHT22;8524;57.650;11.926;2023-03-21T03:28:04;4.80;99.90
16814;DHT22;8524;57.650;11.926;2023-03-21T03:30:32;4.90;99.90
16814;DHT22;8524;57.650;11.926;2023-03-21T03:33:03;4.80;99.90
16814;DHT22;8524;57.650;11.926;2023-03-21T03:35:32;4.80;99.90
16814;DHT22;8524;57.650;11.926;2023-03-21T03:38:03;4.90;99.90
16814;DHT22;8524;57.650;11.926;2023-03-21T03:40:35;4.90;99.90
16814;DHT22;8524;57.650;11.926;2023-03-21T03:43:07;4.90;99.90
16814;DHT22;8524;57.650;11.926;2023-03-21T03:45:41;4.90;99.90
16814;DHT22;8524;57.650;11.926;2023-03-21T03:48:14;4.80;99.90
16814;DHT22;8524;57.650;11.926;2023-03-21T03:50:45;4.90;99.90
16814;DHT22;8524;57.650;11.926;2023-03-21T03:53:19;4.90;99.90
16814;DHT22;8524;57.650;11.926;2023-03-21T03:55:49;4.90;99.90
16814;DHT22;8524;57.650;11.926;2023-03-21T03:58:17;4.90;99.90
16814;DHT22;8524;57.650;11.926;2023-03-21T04:00:46;5.00;99.90
16814;DHT22;8524;57.650;11.926;2023-03-21T04:03:13;4.90;99.90
16814;DHT22;8524;57.650;11.926;2023-03-21T04:05:40;4.90;99.90
16814;DHT22;8524;57.650;11.926;2023-03-21T04:08:11;5.00;99.90
16814;DHT22;8524;57.650;11.926;2023-03-21T04:10:39;4.90;99.90
16814;DHT22;8524;57.650;11.926;2023-03-21T04:13:07;5.00;99.90
16814;DHT22;8524;57.650;11.926;2023-03-21T04:15:34;5.00;99.90
16814;DHT22;8524;57.650;11.926;2023-03-21T04:18:01;5.00;99.90
16814;DHT22;8524;57.650;11.926;2023-03-21T04:20:28;5.00;99.90
16814;DHT22;8524;57.650;11.926;2023-03-21T04:22:55;5.00;99.90
16814;DHT22;8524;57.650;11.926;2023-03-21T04:25:22;5.00;99.90
16814;DHT22;8524;57.650;11.926;2023-03-21T04:27:54;5.00;99.90
16814;DHT22;8524;57.650;11.926;2023-03-21T04:30:21;5.00;99.90
16814;DHT22;8524;57.650;11.926;2023-03-21T04:32:50;5.00;99.90
16814;DHT22;8524;57.650;11.926;2023-03-21T04:35:19;5.00;99.90
16814;DHT22;8524;57.650;11.926;2023-03-21T04:37:46;5.00;99.90
16814;DHT22;8524;57.650;11.926;2023-03-21T04:40:13;5.00;99.90
16814;DHT22;8524;57.650;11.926;2023-03-21T04:42:42;5.00;99.90
16814;DHT22;8524;57.650;11.926;2023-03-21T04:45:11;5.00;99.90
16814;DHT22;8524;57.650;11.926;2023-03-21T04:47:38;5.00;99.90
16814;DHT22;8524;57.650;11.926;2023-03-21T04:50:07;5.00;99.90
16814;DHT22;8524;57.650;11.926;2023-03-21T04:52:34;5.10;99.90
16814;DHT22;8524;57.650;11.926;2023-03-21T04:55:01;5.10;99.90
16814;DHT22;8524;57.650;11.926;2023-03-21T04:57:28;5.00;99.90
16814;DHT22;8524;57.650;11.926;2023-03-21T04:59:55;5.00;99.90
16814;DHT22;8524;57.650;11.926;2023-03-21T05:02:26;5.00;99.90
16814;DHT22;8524;57.650;11.926;2023-03-21T05:04:53;5.10;99.90
16814;DHT22;8524;57.650;11.926;2023-03-21T05:07:22;5.10;99.90
16814;DHT22;8524;57.650;11.926;2023-03-21T05:09:51;5.10;99.90
16814;DHT22;8524;57.650;11.926;2023-03-21T05:12:18;5.00;99.90
16814;DHT22;8524;57.650;11.926;2023-03-21T05:14:45;5.10;99.90
16814;DHT22;8524;57.650;11.926;2023-03-21T05:17:12;5.10;99.90
16814;DHT22;8524;57.650;11.926;2023-03-21T05:19:49;5.10;99.90
16814;DHT22;8524;57.650;11.926;2023-03-21T05:22:18;5.10;99.90
16814;DHT22;8524;57.650;11.926;2023-03-21T05:24:45;5.10;99.90
16814;DHT22;8524;57.650;11.926;2023-03-21T05:27:15;5.10;99.90
16814;DHT22;8524;57.650;11.926;2023-03-21T05:30:00;5.00;99.90
16814;DHT22;8524;57.650;11.926;2023-03-21T05:32:27;4.90;99.90
16814;DHT22;8524;57.650;11.926;2023-03-21T05:34:56;5.00;99.90
16814;DHT22;8524;57.650;11.926;2023-03-21T05:37:23;4.90;99.90
16814;DHT22;8524;57.650;11.926;2023-03-21T05:39:50;4.90;99.90
16814;DHT22;8524;57.650;11.926;2023-03-21T05:42:17;4.80;99.90
16814;DHT22;8524;57.650;11.926;2023-03-21T05:44:45;4.80;99.90
16814;DHT22;8524;57.650;11.926;2023-03-21T05:47:13;4.80;99.90
16814;DHT22;8524;57.650;11.926;2023-03-21T05:49:40;4.80;99.90
16814;DHT22;8524;57.650;11.926;2023-03-21T05:52:09;4.80;99.90
16814;DHT22;8524;57.650;11.926;2023-03-21T05:54:36;4.90;99.90
16814;DHT22;8524;57.650;11.926;2023-03-21T05:57:04;4.80;99.90
16814;DHT22;8524;57.650;11.926;2023-03-21T05:59:31;4.80;99.90
16814;DHT22;8524;57.650;11.926;2023-03-21T06:01:58;4.80;99.90
16814;DHT22;8524;57.650;11.926;2023-03-21T06:04:25;4.90;99.90
16814;DHT22;8524;57.650;11.926;2023-03-21T06:06:53;4.90;99.90
16814;DHT22;8524;57.650;11.926;2023-03-21T06:09:22;4.90;99.90
16814;DHT22;8524;57.650;11.926;2023-03-21T06:11:51;4.90;99.90
16814;DHT22;8524;57.650;11.926;2023-03-21T06:14:18;4.90;99.90
16814;DHT22;8524;57.650;11.926;2023-03-21T06:16:46;4.80;99.90
16814;DHT22;8524;57.650;11.926;2023-03-21T06:19:13;4.90;99.90
16814;DHT22;8524;57.650;11.926;2023-03-21T06:21:40;4.80;99.90
16814;DHT22;8524;57.650;11.926;2023-03-21T06:24:07;4.90;99.90
16814;DHT22;8524;57.650;11.926;2023-03-21T06:26:36;4.80;99.90
16814;DHT22;8524;57.650;11.926;2023-03-21T06:29:03;4.90;99.90
16814;DHT22;8524;57.650;11.926;2023-03-21T06:31:30;4.90;99.90
16814;DHT22;8524;57.650;11.926;2023-03-21T06:33:57;4.90;99.90
16814;DHT22;8524;57.650;11.926;2023-03-21T06:36:24;5.00;99.90
16814;DHT22;8524;57.650;11.926;2023-03-21T06:38:51;5.00;99.90
16814;DHT22;8524;57.650;11.926;2023-03-21T06:41:18;4.90;99.90
16814;DHT22;8524;57.650;11.926;2023-03-21T06:43:46;5.00;99.90
16814;DHT22;8524;57.650;11.926;2023-03-21T06:46:14;5.00;99.90
16814;DHT22;8524;57.650;11.926;2023-03-21T06:48:41;5.10;99.90
16814;DHT22;8524;57.650;11.926;2023-03-21T06:51:10;5.10;99.90
16814;DHT22;8524;57.650;11.926;2023-03-21T06:53:37;5.10;99.90
16814;DHT22;8524;57.650;11.926;2023-03-21T06:56:07;5.10;99.90
16814;DHT22;8524;57.650;11.926;2023-03-21T06:58:35;5.10;99.90
16814;DHT22;8524;57.650;11.926;2023-03-21T07:01:04;5.10;99.90
16814;DHT22;8524;57.650;11.926;2023-03-21T07:03:32;5.10;99.90
16814;DHT22;8524;57.650;11.926;2023-03-21T07:06:03;5.20;99.90
16814;DHT22;8524;57.650;11.926;2023-03-21T07:08:31;5.20;99.90
16814;DHT22;8524;57.650;11.926;2023-03-21T07:10:59;5.20;99.90
16814;DHT22;8524;57.650;11.926;2023-03-21T07:13:26;5.30;99.90
16814;DHT22;8524;57.650;11.926;2023-03-21T07:15:54;5.30;99.90
16814;DHT22;8524;57.650;11.926;2023-03-21T07:18:22;5.20;99.90
16814;DHT22;8524;57.650;11.926;2023-03-21T07:20:50;5.30;99.90
16814;DHT22;8524;57.650;11.926;2023-03-21T07:23:17;5.30;99.90
16814;DHT22;8524;57.650;11.926;2023-03-21T07:25:46;5.30;99.90
16814;DHT22;8524;57.650;11.926;2023-03-21T07:28:13;5.40;99.90
16814;DHT22;8524;57.650;11.926;2023-03-21T07:30:41;5.30;99.90
16814;DHT22;8524;57.650;11.926;2023-03-21T07:33:08;5.40;99.90
16814;DHT22;8524;57.650;11.926;2023-03-21T07:35:37;5.40;99.90
16814;DHT22;8524;57.650;11.926;2023-03-21T07:38:04;5.50;99.90
16814;DHT22;8524;57.650;11.926;2023-03-21T07:40:32;5.50;99.90
16814;DHT22;8524;57.650;11.926;2023-03-21T07:42:59;5.50;99.90
16814;DHT22;8524;57.650;11.926;2023-03-21T07:45:26;5.50;99.90
16814;DHT22;8524;57.650;11.926;2023-03-21T07:47:53;5.50;99.90
16814;DHT22;8524;57.650;11.926;2023-03-21T07:50:21;5.60;99.90
16814;DHT22;8524;57.650;11.926;2023-03-21T07:52:49;5.60;99.90
16814;DHT22;8524;57.650;11.926;2023-03-21T07:55:16;5.70;99.90
16814;DHT22;8524;57.650;11.926;2023-03-21T07:57:43;5.70;99.90
16814;DHT22;8524;57.650;11.926;2023-03-21T08:00:12;5.70;99.90
16814;DHT22;8524;57.650;11.926;2023-03-21T08:02:48;5.70;99.90
16814;DHT22;8524;57.650;11.926;2023-03-21T08:05:19;5.70;99.90
16814;DHT22;8524;57.650;11.926;2023-03-21T08:07:46;5.70;99.90
16814;DHT22;8524;57.650;11.926;2023-03-21T08:10:15;5.70;99.90
16814;DHT22;8524;57.650;11.926;2023-03-21T08:12:42;5.70;99.90
16814;DHT22;8524;57.650;11.926;2023-03-21T08:15:10;5.90;99.90
16814;DHT22;8524;57.650;11.926;2023-03-21T08:17:39;5.90;99.90
16814;DHT22;8524;57.650;11.926;2023-03-21T08:20:08;5.90;99.90
16814;DHT22;8524;57.650;11.926;2023-03-21T08:22:37;5.90;99.90
16814;DHT22;8524;57.650;11.926;2023-03-21T08:25:06;6.10;99.90
16814;DHT22;8524;57.650;11.926;2023-03-21T08:27:36;6.10;99.90
16814;DHT22;8524;57.650;11.926;2023-03-21T08:30:03;6.20;99.90
16814;DHT22;8524;57.650;11.926;2023-03-21T08:32:31;6.30;99.90
16814;DHT22;8524;57.650;11.926;2023-03-21T08:34:59;6.30;99.90
16814;DHT22;8524;57.650;11.926;2023-03-21T08:37:26;6.30;99.90
16814;DHT22;8524;57.650;11.926;2023-03-21T08:39:56;6.40;99.90
16814;DHT22;8524;57.650;11.926;2023-03-21T08:42:23;6.50;99.90
16814;DHT22;8524;57.650;11.926;2023-03-21T08:44:53;6.40;99.90
16814;DHT22;8524;57.650;11.926;2023-03-21T08:47:23;6.40;99.90
16814;DHT22;8524;57.650;11.926;2023-03-21T08:49:50;6.50;99.90
16814;DHT22;8524;57.650;11.926;2023-03-21T08:52:17;6.60;99.90
16814;DHT22;8524;57.650;11.926;2023-03-21T08:54:44;6.70;99.90
16814;DHT22;8524;57.650;11.926;2023-03-21T08:57:13;6.90;99.90
16814;DHT22;8524;57.650;11.926;2023-03-21T08:59:41;6.90;99.90
16814;DHT22;8524;57.650;11.926;2023-03-21T09:02:13;7.00;99.90
16814;DHT22;8524;57.650;11.926;2023-03-21T09:04:40;7.10;99.90
16814;DHT22;8524;57.650;11.926;2023-03-21T09:07:08;7.20;99.90
16814;DHT22;8524;57.650;11.926;2023-03-21T09:09:36;7.30;99.90
16814;DHT22;8524;57.650;11.926;2023-03-21T09:12:03;7.40;99.90
16814;DHT22;8524;57.650;11.926;2023-03-21T09:14:30;7.30;99.90
16814;DHT22;8524;57.650;11.926;2023-03-21T09:16:57;7.30;99.90
16814;DHT22;8524;57.650;11.926;2023-03-21T09:19:26;7.30;99.90
16814;DHT22;8524;57.650;11.926;2023-03-21T09:21:54;7.30;99.90
16814;DHT22;8524;57.650;11.926;2023-03-21T09:24:22;7.30;99.90
16814;DHT22;8524;57.650;11.926;2023-03-21T09:26:49;7.30;99.90
16814;DHT22;8524;57.650;11.926;2023-03-21T09:29:16;7.40;99.90
16814;DHT22;8524;57.650;11.926;2023-03-21T09:31:45;7.40;99.90
16814;DHT22;8524;57.650;11.926;2023-03-21T09:34:12;7.40;99.90
16814;DHT22;8524;57.650;11.926;2023-03-21T09:36:42;7.40;99.90
16814;DHT22;8524;57.650;11.926;2023-03-21T09:39:13;7.40;99.90
16814;DHT22;8524;57.650;11.926;2023-03-21T09:42:14;7.30;99.90
16814;DHT22;8524;57.650;11.926;2023-03-21T09:44:53;7.40;99.90
16814;DHT22;8524;57.650;11.926;2023-03-21T09:47:24;7.40;99.90
16814;DHT22;8524;57.650;11.926;2023-03-21T09:49:57;7.40;99.90
16814;DHT22;8524;57.650;11.926;2023-03-21T09:52:31;7.50;99.90
16814;DHT22;8524;57.650;11.926;2023-03-21T09:54:59;7.80;99.90
16814;DHT22;8524;57.650;11.926;2023-03-21T09:57:33;7.80;99.90
16814;DHT22;8524;57.650;11.926;2023-03-21T10:00:05;7.70;99.90
16814;DHT22;8524;57.650;11.926;2023-03-21T10:02:38;7.90;99.90
16814;DHT22;8524;57.650;11.926;2023-03-21T10:05:12;7.90;99.90
16814;DHT22;8524;57.650;11.926;2023-03-21T10:07:45;8.00;99.90
16814;DHT22;8524;57.650;11.926;2023-03-21T10:10:19;8.00;99.90
16814;DHT22;8524;57.650;11.926;2023-03-21T10:12:49;7.80;99.90
16814;DHT22;8524;57.650;11.926;2023-03-21T10:15:20;7.90;99.90
16814;DHT22;8524;57.650;11.926;2023-03-21T10:17:52;8.00;99.90
16814;DHT22;8524;57.650;11.926;2023-03-21T10:20:23;8.00;99.90
16814;DHT22;8524;57.650;11.926;2023-03-21T10:22:53;8.00;99.90
16814;DHT22;8524;57.650;11.926;2023-03-21T10:25:25;7.90;99.90
16814;DHT22;8524;57.650;11.926;2023-03-21T10:27:54;7.90;99.90
16814;DHT22;8524;57.650;11.926;2023-03-21T10:30:29;7.90;99.90
16814;DHT22;8524;57.650;11.926;2023-03-21T10:33:03;7.90;99.90
16814;DHT22;8524;57.650;11.926;2023-03-21T10:35:35;7.90;99.90
16814;DHT22;8524;57.650;11.926;2023-03-21T10:38:06;7.80;99.90
16814;DHT22;8524;57.650;11.926;2023-03-21T10:40:38;7.90;99.90
16814;DHT22;8524;57.650;11.926;2023-03-21T10:43:18;7.90;99.90
16814;DHT22;8524;57.650;11.926;2023-03-21T10:45:46;8.00;99.90
16814;DHT22;8524;57.650;11.926;2023-03-21T10:48:14;8.10;99.90
16814;DHT22;8524;57.650;11.926;2023-03-21T10:50:41;8.10;99.90
16814;DHT22;8524;57.650;11.926;2023-03-21T10:53:17;8.30;99.90
16814;DHT22;8524;57.650;11.926;2023-03-21T10:55:47;8.40;99.90
16814;DHT22;8524;57.650;11.926;2023-03-21T10:58:17;8.50;99.90
16814;DHT22;8524;57.650;11.926;2023-03-21T11:00:54;8.60;99.90
16814;DHT22;8524;57.650;11.926;2023-03-21T11:03:26;8.50;99.90
16814;DHT22;8524;57.650;11.926;2023-03-21T11:06:03;8.50;99.90
16814;DHT22;8524;57.650;11.926;2023-03-21T11:08:37;8.40;99.90
16814;DHT22;8524;57.650;11.926;2023-03-21T11:11:07;8.60;99.90
16814;DHT22;8524;57.650;11.926;2023-03-21T11:13:37;8.70;99.90
16814;DHT22;8524;57.650;11.926;2023-03-21T11:16:07;8.60;99.90
16814;DHT22;8524;57.650;11.926;2023-03-21T11:18:41;8.70;99.90
16814;DHT22;8524;57.650;11.926;2023-03-21T11:21:10;8.70;99.90
16814;DHT22;8524;57.650;11.926;2023-03-21T11:23:41;8.50;99.90
16814;DHT22;8524;57.650;11.926;2023-03-21T11:26:17;8.50;99.90
16814;DHT22;8524;57.650;11.926;2023-03-21T11:28:45;8.50;99.90
16814;DHT22;8524;57.650;11.926;2023-03-21T11:31:12;8.50;99.90
16814;DHT22;8524;57.650;11.926;2023-03-21T11:33:41;8.60;99.90
16814;DHT22;8524;57.650;11.926;2023-03-21T11:36:29;8.80;99.90
16814;DHT22;8524;57.650;11.926;2023-03-21T11:39:13;8.60;99.90
16814;DHT22;8524;57.650;11.926;2023-03-21T11:41:41;8.60;99.90
16814;DHT22;8524;57.650;11.926;2023-03-21T11:44:25;8.70;99.90
16814;DHT22;8524;57.650;11.926;2023-03-21T11:46:53;8.70;99.90
16814;DHT22;8524;57.650;11.926;2023-03-21T11:49:21;8.60;99.90
16814;DHT22;8524;57.650;11.926;2023-03-21T11:51:53;8.70;99.90
16814;DHT22;8524;57.650;11.926;2023-03-21T11:54:29;8.90;99.90
16814;DHT22;8524;57.650;11.926;2023-03-21T11:57:02;8.60;99.90
16814;DHT22;8524;57.650;11.926;2023-03-21T11:59:39;8.70;99.90
16814;DHT22;8524;57.650;11.926;2023-03-21T12:05:03;8.50;99.90
16814;DHT22;8524;57.650;11.926;2023-03-21T12:07:43;8.30;99.90
16814;DHT22;8524;57.650;11.926;2023-03-21T12:10:29;8.30;99.90
16814;DHT22;8524;57.650;11.926;2023-03-21T12:13:04;8.20;99.90
16814;DHT22;8524;57.650;11.926;2023-03-21T12:15:37;8.20;99.90
16814;DHT22;8524;57.650;11.926;2023-03-21T12:18:12;8.30;99.90
16814;DHT22;8524;57.650;11.926;2023-03-21T12:20:44;8.30;99.90
16814;DHT22;8524;57.650;11.926;2023-03-21T12:26:25;8.50;99.90
16814;DHT22;8524;57.650;11.926;2023-03-21T12:29:03;8.60;99.90
16814;DHT22;8524;57.650;11.926;2023-03-21T12:31:43;8.70;99.90
16814;DHT22;8524;57.650;11.926;2023-03-21T12:34:27;8.60;99.90
16814;DHT22;8524;57.650;11.926;2023-03-21T12:37:06;8.40;99.90
16814;DHT22;8524;57.650;11.926;2023-03-21T12:39:38;8.50;99.90
16814;DHT22;8524;57.650;11.926;2023-03-21T12:42:35;8.60;99.90
16814;DHT22;8524;57.650;11.926;2023-03-21T12:45:10;9.00;99.90
16814;DHT22;8524;57.650;11.926;2023-03-21T12:47:40;9.00;99.90
16814;DHT22;8524;57.650;11.926;2023-03-21T12:50:13;9.00;99.90
16814;DHT22;8524;57.650;11.926;2023-03-21T12:52:43;8.90;99.90
16814;DHT22;8524;57.650;11.926;2023-03-21T12:55:15;9.00;99.90
16814;DHT22;8524;57.650;11.926;2023-03-21T12:57:48;9.00;99.90
16814;DHT22;8524;57.650;11.926;2023-03-21T13:00:21;8.80;99.90
16814;DHT22;8524;57.650;11.926;2023-03-21T13:02:54;8.80;99.90
16814;DHT22;8524;57.650;11.926;2023-03-21T13:05:27;8.90;99.90
16814;DHT22;8524;57.650;11.926;2023-03-21T13:07:58;8.80;99.90
16814;DHT22;8524;57.650;11.926;2023-03-21T13:10:26;8.50;99.90
16814;DHT22;8524;57.650;11.926;2023-03-21T13:13:14;8.40;99.90
16814;DHT22;8524;57.650;11.926;2023-03-21T13:15:58;8.30;99.90
16814;DHT22;8524;57.650;11.926;2023-03-21T13:18:34;8.20;99.90
16814;DHT22;8524;57.650;11.926;2023-03-21T13:21:11;8.20;99.90
16814;DHT22;8524;57.650;11.926;2023-03-21T13:23:39;8.10;99.90
16814;DHT22;8524;57.650;11.926;2023-03-21T13:26:08;8.10;99.90
16814;DHT22;8524;57.650;11.926;2023-03-21T13:28:39;8.10;99.90
16814;DHT22;8524;57.650;11.926;2023-03-21T13:31:23;8.20;99.90
16814;DHT22;8524;57.650;11.926;2023-03-21T13:33:53;8.20;99.90
16814;DHT22;8524;57.650;11.926;2023-03-21T13:36:23;8.40;99.90
16814;DHT22;8524;57.650;11.926;2023-03-21T13:38:53;8.60;99.90
16814;DHT22;8524;57.650;11.926;2023-03-21T13:41:28;8.60;99.90
16814;DHT22;8524;57.650;11.926;2023-03-21T13:44:07;8.60;99.90
16814;DHT22;8524;57.650;11.926;2023-03-21T13:46:42;8.50;99.90
16814;DHT22;8524;57.650;11.926;2023-03-21T13:49:17;8.50;99.90
16814;DHT22;8524;57.650;11.926;2023-03-21T13:51:51;8.50;99.90
16814;DHT22;8524;57.650;11.926;2023-03-21T13:54:22;8.50;99.90
16814;DHT22;8524;57.650;11.926;2023-03-21T13:56:54;8.50;99.90
16814;DHT22;8524;57.650;11.926;2023-03-21T13:59:41;8.30;99.90
16814;DHT22;8524;57.650;11.926;2023-03-21T14:02:30;8.30;99.90
16814;DHT22;8524;57.650;11.926;2023-03-21T14:05:00;8.20;99.90
16814;DHT22;8524;57.650;11.926;2023-03-21T14:07:30;8.10;99.90
16814;DHT22;8524;57.650;11.926;2023-03-21T14:09:59;8.10;99.90
16814;DHT22;8524;57.650;11.926;2023-03-21T14:12:30;8.10;99.90
16814;DHT22;8524;57.650;11.926;2023-03-21T14:15:05;8.20;99.90
16814;DHT22;8524;57.650;11.926;2023-03-21T14:17:34;8.20;99.90
16814;DHT22;8524;57.650;11.926;2023-03-21T14:20:05;8.30;99.90
16814;DHT22;8524;57.650;11.926;2023-03-21T14:22:37;8.20;99.90
16814;DHT22;8524;57.650;11.926;2023-03-21T14:25:09;8.30;99.90
16814;DHT22;8524;57.650;11.926;2023-03-21T14:27:36;8.30;99.90
16814;DHT22;8524;57.650;11.926;2023-03-21T14:30:09;8.20;99.90
16814;DHT22;8524;57.650;11.926;2023-03-21T14:32:37;8.00;99.90
16814;DHT22;8524;57.650;11.926;2023-03-21T14:35:10;8.00;99.90
16814;DHT22;8524;57.650;11.926;2023-03-21T14:37:39;7.80;99.90
16814;DHT22;8524;57.650;11.926;2023-03-21T14:40:18;7.80;99.90
16814;DHT22;8524;57.650;11.926;2023-03-21T14:42:47;7.70;99.90
16814;DHT22;8524;57.650;11.926;2023-03-21T14:45:18;7.60;99.90
16814;DHT22;8524;57.650;11.926;2023-03-21T14:47:57;7.70;99.90
16814;DHT22;8524;57.650;11.926;2023-03-21T14:50:31;7.60;99.90
16814;DHT22;8524;57.650;11.926;2023-03-21T14:53:00;7.70;99.90
16814;DHT22;8524;57.650;11.926;2023-03-21T14:55:27;7.80;99.90
16814;DHT22;8524;57.650;11.926;2023-03-21T14:57:55;7.90;99.90
16814;DHT22;8524;57.650;11.926;2023-03-21T15:00:26;7.90;99.90
16814;DHT22;8524;57.650;11.926;2023-03-21T15:02:57;7.80;99.90
16814;DHT22;8524;57.650;11.926;2023-03-21T15:05:28;7.80;99.90
16814;DHT22;8524;57.650;11.926;2023-03-21T15:07:57;7.80;99.90
16814;DHT22;8524;57.650;11.926;2023-03-21T15:10:26;7.80;99.90
16814;DHT22;8524;57.650;11.926;2023-03-21T15:12:56;7.80;99.90
16814;DHT22;8524;57.650;11.926;2023-03-21T15:15:26;7.90;99.90
16814;DHT22;8524;57.650;11.926;2023-03-21T15:17:57;7.90;99.90
16814;DHT22;8524;57.650;11.926;2023-03-21T15:20:28;7.90;99.90
16814;DHT22;8524;57.650;11.926;2023-03-21T15:23:01;7.90;99.90
16814;DHT22;8524;57.650;11.926;2023-03-21T15:25:32;7.80;99.90
16814;DHT22;8524;57.650;11.926;2023-03-21T15:28:01;7.80;99.90
16814;DHT22;8524;57.650;11.926;2023-03-21T15:30:31;7.80;99.90
16814;DHT22;8524;57.650;11.926;2023-03-21T15:33:04;7.70;99.90
16814;DHT22;8524;57.650;11.926;2023-03-21T15:35:35;7.70;99.90
16814;DHT22;8524;57.650;11.926;2023-03-21T15:38:03;7.70;99.90
16814;DHT22;8524;57.650;11.926;2023-03-21T15:40:31;7.60;99.90
16814;DHT22;8524;57.650;11.926;2023-03-21T15:43:11;7.60;99.90
16814;DHT22;8524;57.650;11.926;2023-03-21T15:45:47;7.60;99.90
16814;DHT22;8524;57.650;11.926;2023-03-21T15:48:15;7.60;99.90
16814;DHT22;8524;57.650;11.926;2023-03-21T15:50:55;7.70;99.90
16814;DHT22;8524;57.650;11.926;2023-03-21T15:53:23;7.70;99.90
16814;DHT22;8524;57.650;11.926;2023-03-21T15:55:52;7.70;99.90
16814;DHT22;8524;57.650;11.926;2023-03-21T15:58:23;7.70;99.90
16814;DHT22;8524;57.650;11.926;2023-03-21T16:00:53;7.60;99.90
16814;DHT22;8524;57.650;11.926;2023-03-21T16:03:23;7.70;99.90
16814;DHT22;8524;57.650;11.926;2023-03-21T16:06:06;7.70;99.90
16814;DHT22;8524;57.650;11.926;2023-03-21T16:08:35;7.60;99.90
16814;DHT22;8524;57.650;11.926;2023-03-21T16:11:07;7.60;99.90
16814;DHT22;8524;57.650;11.926;2023-03-21T16:13:34;7.60;99.90
16814;DHT22;8524;57.650;11.926;2023-03-21T16:16:04;7.50;99.90
16814;DHT22;8524;57.650;11.926;2023-03-21T16:18:31;7.50;99.90
16814;DHT22;8524;57.650;11.926;2023-03-21T16:20:59;7.50;99.90
16814;DHT22;8524;57.650;11.926;2023-03-21T16:23:26;7.50;99.90